createdAt,value
2018-09-20T00:01:59.203Z,18.63
2018-09-20T00:04:28.283Z,18.57
2018-09-20T00:06:57.401Z,18.53
2018-09-20T00:09:26.399Z,18.49
2018-09-20T00:11:55.415Z,18.53
2018-09-20T00:14:24.422Z,18.50
2018-09-20T00:16:53.414Z,18.51
2018-09-20T00:19:22.475Z,18.46
2018-09-20T00:21:51.535Z,18.44
2018-09-20T00:24:20.784Z,18.39
2018-09-20T00:26:49.799Z,18.30
2018-09-20T00:29:18.836Z,18.26
2018-09-20T00:31:47.847Z,18.22
2018-09-20T00:34:16.879Z,18.17
2018-09-20T00:36:46.043Z,18.13
2018-09-20T00:39:15.160Z,18.12
2018-09-20T00:41:44.160Z,18.08
2018-09-20T00:44:13.205Z,18.11
2018-09-20T00:46:42.212Z,18.15
2018-09-20T00:49:11.244Z,18.16
2018-09-20T00:51:40.247Z,18.09
2018-09-20T00:54:09.297Z,18.04
2018-09-20T00:56:38.286Z,18.01
2018-09-20T00:59:07.313Z,18.15
2018-09-20T01:01:36.330Z,18.08
2018-09-20T01:04:05.887Z,18.00
2018-09-20T01:06:34.898Z,18.02
2018-09-20T01:09:05.683Z,18.01
2018-09-20T01:11:34.695Z,18.00
2018-09-20T01:14:03.707Z,18.01
2018-09-20T01:16:32.722Z,18.03
2018-09-20T01:19:01.824Z,18.01
2018-09-20T01:21:30.876Z,17.99
2018-09-20T01:23:59.907Z,17.98
2018-09-20T01:26:28.943Z,17.96
2018-09-20T01:28:57.950Z,17.92
2018-09-20T01:31:26.980Z,17.92
2018-09-20T01:33:55.991Z,17.89
2018-09-20T01:36:25.027Z,17.93
2018-09-20T01:38:54.042Z,17.92
2018-09-20T01:41:23.075Z,17.90
2018-09-20T01:43:52.104Z,17.88
2018-09-20T01:46:21.361Z,17.82
2018-09-20T01:48:50.372Z,17.85
2018-09-20T01:51:19.405Z,17.84
2018-09-20T01:53:48.420Z,17.87
2018-09-20T01:56:17.442Z,17.89
2018-09-20T01:58:47.038Z,17.88
2018-09-20T02:01:16.156Z,17.83
2018-09-20T02:03:45.152Z,17.78
2018-09-20T02:06:14.223Z,17.79
2018-09-20T02:08:43.315Z,17.68
2018-09-20T02:11:12.323Z,17.67
2018-09-20T02:13:41.406Z,17.60
2018-09-20T02:16:10.434Z,17.51
2018-09-20T02:18:39.447Z,17.50
2018-09-20T02:21:08.485Z,17.48
2018-09-20T02:23:37.513Z,17.45
2018-09-20T02:26:06.539Z,17.41
2018-09-20T02:28:35.555Z,17.40
2018-09-20T02:31:04.583Z,17.40
2018-09-20T02:33:33.616Z,17.43
2018-09-20T02:36:03.315Z,17.37
2018-09-20T02:38:32.328Z,17.30
2018-09-20T02:41:01.456Z,17.28
2018-09-20T02:43:30.471Z,17.25
2018-09-20T02:45:59.531Z,17.20
2018-09-20T02:48:28.867Z,17.19
2018-09-20T02:50:57.895Z,17.24
2018-09-20T02:53:26.959Z,17.23
2018-09-20T02:55:55.965Z,17.28
2018-09-20T02:58:25.016Z,17.29
2018-09-20T03:00:54.034Z,17.24
2018-09-20T03:03:23.047Z,17.20
2018-09-20T03:05:52.069Z,17.18
2018-09-20T03:08:21.603Z,17.16
2018-09-20T03:10:50.715Z,17.10
2018-09-20T03:13:19.730Z,17.19
2018-09-20T03:15:48.752Z,17.11
2018-09-20T03:18:17.768Z,17.09
2018-09-20T03:20:46.800Z,17.05
2018-09-20T03:23:15.822Z,17.04
2018-09-20T03:25:44.844Z,17.02
2018-09-20T03:28:13.859Z,16.98
2018-09-20T03:30:43.075Z,16.88
2018-09-20T03:33:11.992Z,16.86
2018-09-20T03:35:41.006Z,16.88
2018-09-20T03:38:10.034Z,16.86
2018-09-20T03:40:39.050Z,16.79
2018-09-20T03:43:08.175Z,16.81
2018-09-20T03:45:37.208Z,16.79
2018-09-20T03:48:06.287Z,16.74
2018-09-20T03:50:35.314Z,16.70
2018-09-20T03:53:04.331Z,16.79
2018-09-20T03:55:33.447Z,16.75
2018-09-20T03:58:02.500Z,16.74
2018-09-20T04:00:31.499Z,16.75
2018-09-20T04:03:00.583Z,16.72
2018-09-20T04:05:29.600Z,16.75
2018-09-20T04:08:05.271Z,16.71
2018-09-20T04:10:34.439Z,16.74
2018-09-20T04:13:03.459Z,16.75
2018-09-20T04:15:32.469Z,16.69
2018-09-20T04:18:01.490Z,16.71
2018-09-20T04:20:30.651Z,16.74
2018-09-20T04:22:59.667Z,16.78
2018-09-20T04:25:28.756Z,16.73
2018-09-20T04:27:57.779Z,16.68
2018-09-20T04:30:26.795Z,16.70
2018-09-20T04:32:55.908Z,16.68
2018-09-20T04:35:25.107Z,16.69
2018-09-20T04:37:54.108Z,16.72
2018-09-20T04:40:23.352Z,16.71
2018-09-20T04:42:52.419Z,16.70
2018-09-20T04:45:21.439Z,16.65
2018-09-20T04:47:50.463Z,16.59
2018-09-20T04:50:19.479Z,16.58
2018-09-20T04:52:48.508Z,16.56
2018-09-20T04:55:17.508Z,16.55
2018-09-20T04:57:46.563Z,16.50
2018-09-20T05:00:15.668Z,16.47
2018-09-20T05:02:44.694Z,16.44
2018-09-20T05:05:13.723Z,16.44
2018-09-20T05:07:42.760Z,16.40
2018-09-20T05:10:11.859Z,16.37
2018-09-20T05:12:40.895Z,16.35
2018-09-20T05:15:09.925Z,16.37
2018-09-20T05:17:38.946Z,16.38
2018-09-20T05:20:07.963Z,16.43
2018-09-20T05:22:36.989Z,16.46
2018-09-20T05:25:06.115Z,16.69
2018-09-20T05:27:35.251Z,17.19
2018-09-20T05:30:04.667Z,17.43
2018-09-20T05:32:33.695Z,17.45
2018-09-20T05:35:02.799Z,17.33
2018-09-20T05:37:32.011Z,17.09
2018-09-20T05:40:01.099Z,17.02
2018-09-20T05:42:30.144Z,17.03
2018-09-20T05:44:59.169Z,17.32
2018-09-20T05:47:28.204Z,17.53
2018-09-20T05:49:57.224Z,17.59
2018-09-20T05:52:26.420Z,17.54
2018-09-20T05:54:55.512Z,17.55
2018-09-20T05:57:24.591Z,17.66
2018-09-20T05:59:53.803Z,17.58
2018-09-20T06:02:22.807Z,17.56
2018-09-20T06:04:51.855Z,17.56
2018-09-20T06:07:20.963Z,17.54
2018-09-20T06:09:50.007Z,17.52
2018-09-20T06:12:19.171Z,17.54
2018-09-20T06:14:48.199Z,17.50
2018-09-20T06:17:17.267Z,17.53
2018-09-20T06:19:46.284Z,17.59
2018-09-20T06:22:15.307Z,17.70
2018-09-20T06:24:44.387Z,17.71
2018-09-20T06:27:13.420Z,17.76
2018-09-20T06:29:42.447Z,17.88
2018-09-20T06:32:11.471Z,17.98
2018-09-20T06:34:40.588Z,18.07
2018-09-20T06:37:09.611Z,18.15
2018-09-20T06:39:38.642Z,18.21
2018-09-20T06:42:07.707Z,18.28
2018-09-20T06:44:36.738Z,18.41
2018-09-20T06:47:05.755Z,18.60
2018-09-20T06:49:34.792Z,18.74
2018-09-20T06:52:03.931Z,18.88
2018-09-20T06:54:32.952Z,18.96
2018-09-20T06:57:01.967Z,19.07
2018-09-20T06:59:31.114Z,19.16
2018-09-20T07:02:00.163Z,19.24
2018-09-20T07:04:29.183Z,19.34
2018-09-20T07:06:58.315Z,19.48
2018-09-20T07:09:27.352Z,19.59
2018-09-20T07:11:56.460Z,19.69
2018-09-20T07:14:25.695Z,19.79
2018-09-20T07:16:54.707Z,19.92
2018-09-20T07:19:23.828Z,20.09
2018-09-20T07:21:52.844Z,20.24
2018-09-20T07:24:22.003Z,20.56
2018-09-20T07:26:53.927Z,20.35
2018-09-20T07:29:23.099Z,20.29
2018-09-20T07:31:52.116Z,20.14
2018-09-20T07:34:21.155Z,20.08
2018-09-20T07:36:50.187Z,20.06
2018-09-20T07:39:19.271Z,20.10
2018-09-20T07:41:48.287Z,20.20
2018-09-20T07:44:17.388Z,20.38
2018-09-20T07:46:46.411Z,20.46
2018-09-20T07:49:15.512Z,20.49
2018-09-20T07:51:44.526Z,20.61
2018-09-20T07:54:13.573Z,20.70
2018-09-20T07:56:42.644Z,20.86
2018-09-20T07:59:11.644Z,20.91
2018-09-20T08:01:40.837Z,21.06
2018-09-20T08:04:10.453Z,21.24
2018-09-20T08:06:39.492Z,21.31
2018-09-20T08:09:10.422Z,21.53
2018-09-20T08:11:39.439Z,21.61
2018-09-20T08:14:08.467Z,21.62
2018-09-20T08:16:38.112Z,21.71
2018-09-20T08:19:07.583Z,21.80
2018-09-20T08:21:36.786Z,21.86
2018-09-20T08:24:05.946Z,21.95
2018-09-20T08:26:35.116Z,22.04
2018-09-20T08:29:04.155Z,22.22
2018-09-20T08:31:33.313Z,22.28
2018-09-20T08:34:02.332Z,22.42
2018-09-20T08:36:31.361Z,22.56
2018-09-20T08:39:00.459Z,22.85
2018-09-20T08:41:36.506Z,22.92
2018-09-20T08:44:05.835Z,22.97
2018-09-20T08:46:34.880Z,22.97
2018-09-20T08:49:03.900Z,23.02
2018-09-20T08:51:32.944Z,23.15
2018-09-20T08:54:02.007Z,23.14
2018-09-20T08:56:31.094Z,23.16
2018-09-20T08:59:00.296Z,23.43
2018-09-20T09:01:29.335Z,23.60
2018-09-20T09:03:58.355Z,23.61
2018-09-20T09:06:28.441Z,23.66
2018-09-20T09:08:57.932Z,23.61
2018-09-20T09:11:27.028Z,23.87
2018-09-20T09:13:56.032Z,23.95
2018-09-20T09:16:25.059Z,24.05
2018-09-20T09:18:54.111Z,24.18
2018-09-20T09:21:23.136Z,24.17
2018-09-20T09:23:52.149Z,24.26
2018-09-20T09:26:21.171Z,24.27
2018-09-20T09:28:50.280Z,24.34
2018-09-20T09:31:19.301Z,24.59
2018-09-20T09:33:48.314Z,24.83
2018-09-20T09:36:17.350Z,24.86
2018-09-20T09:38:54.650Z,24.77
2018-09-20T09:41:32.044Z,24.61
2018-09-20T09:44:21.865Z,24.93
2018-09-20T09:47:00.913Z,25.01
2018-09-20T09:49:45.721Z,25.12
2018-09-20T09:52:29.235Z,25.32
2018-09-20T09:55:09.198Z,25.29
2018-09-20T09:57:49.134Z,25.44
2018-09-20T10:00:32.838Z,25.59
2018-09-20T10:03:28.929Z,25.71
2018-09-20T10:06:08.920Z,25.88
2018-09-20T10:08:52.468Z,25.80
2018-09-20T10:11:37.144Z,25.89
2018-09-20T10:14:12.677Z,26.18
2018-09-20T10:17:07.824Z,26.18
2018-09-20T10:19:54.430Z,26.23
2018-09-20T10:22:33.183Z,26.24
2018-09-20T10:25:17.027Z,26.43
2018-09-20T10:27:53.830Z,26.56
2018-09-20T10:30:33.460Z,26.65
2018-09-20T10:33:15.992Z,26.71
2018-09-20T10:35:57.201Z,26.84
2018-09-20T10:38:37.166Z,26.62
2018-09-20T10:41:18.122Z,26.70
2018-09-20T10:43:55.864Z,26.86
2018-09-20T10:46:31.042Z,26.88
2018-09-20T10:49:12.923Z,26.94
2018-09-20T10:51:55.858Z,27.05
2018-09-20T10:54:40.404Z,27.15
2018-09-20T10:57:16.368Z,27.27
2018-09-20T10:59:51.039Z,27.34
2018-09-20T11:02:25.093Z,27.52
2018-09-20T11:05:06.083Z,27.71
2018-09-20T11:07:45.626Z,27.86
2018-09-20T11:10:33.555Z,28.01
2018-09-20T11:13:11.371Z,28.02
2018-09-20T11:15:46.521Z,28.01
2018-09-20T11:18:24.237Z,28.15
2018-09-20T11:21:03.380Z,28.13
2018-09-20T11:23:42.217Z,28.08
2018-09-20T11:26:17.692Z,28.11
2018-09-20T11:28:58.227Z,28.53
2018-09-20T11:31:37.733Z,28.07
2018-09-20T11:34:15.724Z,28.29
2018-09-20T11:36:54.338Z,28.31
2018-09-20T11:39:25.618Z,28.39
2018-09-20T11:42:00.783Z,28.61
2018-09-20T11:44:36.450Z,28.62
2018-09-20T11:47:10.319Z,28.40
2018-09-20T11:49:45.574Z,28.60
2018-09-20T11:52:20.756Z,28.49
2018-09-20T11:55:00.205Z,28.39
2018-09-20T11:57:40.401Z,28.34
2018-09-20T12:00:27.107Z,28.54
2018-09-20T12:03:11.084Z,28.63
2018-09-20T12:05:44.699Z,28.71
2018-09-20T12:08:22.000Z,28.74
2018-09-20T12:10:58.458Z,28.73
2018-09-20T12:13:32.475Z,28.67
2018-09-20T12:16:07.555Z,28.66
2018-09-20T12:18:43.697Z,28.46
2018-09-20T12:21:22.431Z,28.52
2018-09-20T12:23:59.532Z,28.58
2018-09-20T12:26:44.919Z,28.47
2018-09-20T12:29:21.302Z,28.71
2018-09-20T12:32:00.504Z,28.86
2018-09-20T12:34:44.611Z,28.77
2018-09-20T12:37:29.487Z,28.75
2018-09-20T12:40:12.726Z,28.95
2018-09-20T12:42:52.305Z,28.94
2018-09-20T12:45:26.773Z,29.06
2018-09-20T12:48:03.353Z,28.98
2018-09-20T12:50:43.197Z,29.15
2018-09-20T12:53:20.665Z,29.17
2018-09-20T12:56:04.010Z,29.20
2018-09-20T12:58:58.722Z,29.23
2018-09-20T13:01:38.071Z,29.32
2018-09-20T13:04:15.298Z,29.26
2018-09-20T13:07:15.406Z,29.22
2018-09-20T13:09:59.879Z,29.28
2018-09-20T13:12:37.845Z,29.44
2018-09-20T13:15:20.581Z,29.44
2018-09-20T13:18:15.027Z,29.59
2018-09-20T13:20:54.583Z,29.64
2018-09-20T13:23:42.470Z,29.75
2018-09-20T13:26:23.523Z,29.75
2018-09-20T13:28:59.123Z,29.71
2018-09-20T13:31:44.267Z,29.92
2018-09-20T13:34:27.612Z,29.73
2018-09-20T13:37:03.112Z,29.89
2018-09-20T13:39:44.609Z,29.83
2018-09-20T13:42:22.382Z,29.93
2018-09-20T13:45:02.907Z,30.08
2018-09-20T13:47:39.484Z,29.94
2018-09-20T13:50:16.784Z,29.98
2018-09-20T13:52:53.995Z,29.87
2018-09-20T13:55:39.333Z,29.84
2018-09-20T13:58:30.192Z,30.17
2018-09-20T14:01:09.235Z,29.80
2018-09-20T14:03:52.339Z,30.03
2018-09-20T14:06:32.469Z,30.00
2018-09-20T14:09:13.838Z,29.97
2018-09-20T14:11:54.243Z,30.00
2018-09-20T14:14:34.072Z,29.84
2018-09-20T14:17:18.953Z,29.63
2018-09-20T14:19:58.305Z,29.68
2018-09-20T14:22:40.382Z,29.65
2018-09-20T14:25:21.593Z,29.59
2018-09-20T14:27:56.109Z,29.64
2018-09-20T14:30:36.094Z,29.65
2018-09-20T14:33:20.682Z,29.91
2018-09-20T14:36:02.862Z,29.85
2018-09-20T14:38:45.526Z,29.83
2018-09-20T14:41:27.004Z,29.71
2018-09-20T14:44:00.925Z,29.59
2018-09-20T14:46:39.337Z,29.58
2018-09-20T14:49:16.786Z,29.61
2018-09-20T14:52:00.331Z,29.47
2018-09-20T14:57:31.729Z,29.38
2018-09-20T15:00:07.189Z,29.24
2018-09-20T15:02:47.166Z,29.09
2018-09-20T15:08:14.886Z,29.25
2018-09-20T15:10:55.809Z,29.28
2018-09-20T15:13:45.134Z,29.22
2018-09-20T15:16:31.864Z,29.20
2018-09-20T15:19:19.240Z,29.33
2018-09-20T15:22:02.085Z,29.18
2018-09-20T15:24:44.858Z,29.26
2018-09-20T15:27:27.031Z,29.17
2018-09-20T15:30:04.434Z,29.15
2018-09-20T15:32:41.977Z,28.93
2018-09-20T15:35:23.749Z,28.90
2018-09-20T15:38:06.077Z,28.95
2018-09-20T15:40:40.911Z,28.88
2018-09-20T15:43:19.086Z,28.83
2018-09-20T15:45:57.257Z,28.65
2018-09-20T15:48:36.602Z,28.61
2018-09-20T15:51:16.202Z,28.52
2018-09-20T15:53:55.612Z,28.60
2018-09-20T15:56:32.338Z,28.55
2018-09-20T15:59:13.694Z,28.45
2018-09-20T16:01:52.308Z,28.45
2018-09-20T16:05:31.023Z,28.35
2018-09-20T16:08:15.839Z,28.21
2018-09-20T16:10:58.794Z,28.26
2018-09-20T16:13:35.172Z,28.18
2018-09-20T16:18:56.536Z,28.07
2018-09-20T16:21:35.167Z,28.00
2018-09-20T16:24:19.270Z,27.89
2018-09-20T16:26:59.498Z,27.76
2018-09-20T16:29:46.275Z,27.69
2018-09-20T16:32:39.472Z,27.58
2018-09-20T16:35:30.571Z,27.42
2018-09-20T16:38:50.837Z,27.58
2018-09-20T16:41:38.421Z,27.64
2018-09-20T16:44:20.451Z,27.57
2018-09-20T16:47:01.833Z,27.49
2018-09-20T16:49:41.282Z,27.42
2018-09-20T16:52:25.534Z,27.19
2018-09-20T16:55:04.591Z,26.84
2018-09-20T16:57:34.132Z,26.53
2018-09-20T17:00:04.242Z,26.23
2018-09-20T17:02:33.239Z,25.93
2018-09-20T17:05:02.262Z,25.74
2018-09-20T17:07:31.257Z,25.48
2018-09-20T17:10:00.260Z,25.24
2018-09-20T17:12:29.272Z,24.95
2018-09-20T17:14:58.617Z,24.84
2018-09-20T17:17:27.505Z,24.61
2018-09-20T17:19:56.578Z,24.35
2018-09-20T17:22:25.641Z,24.13
2018-09-20T17:24:54.687Z,23.93
2018-09-20T17:27:24.006Z,23.71
2018-09-20T17:29:53.043Z,23.56
2018-09-20T17:32:22.119Z,23.33
2018-09-20T17:34:51.951Z,23.16
2018-09-20T17:37:22.284Z,22.99
2018-09-20T17:39:53.272Z,22.82
2018-09-20T17:42:23.556Z,22.68
2018-09-20T17:44:52.571Z,22.53
2018-09-20T17:47:21.677Z,22.40
2018-09-20T17:49:50.713Z,22.23
2018-09-20T17:52:20.907Z,22.13
2018-09-20T17:54:50.339Z,22.00
2018-09-20T17:57:20.235Z,21.93
2018-09-20T17:59:49.243Z,21.86
2018-09-20T18:02:18.337Z,21.81
2018-09-20T18:04:47.340Z,21.64
2018-09-20T18:07:16.415Z,21.53
2018-09-20T18:09:45.435Z,21.42
2018-09-20T18:12:14.441Z,21.29
2018-09-20T18:14:43.520Z,21.17
2018-09-20T18:17:12.545Z,21.08
2018-09-20T18:19:41.628Z,21.05
2018-09-20T18:22:10.620Z,21.01
2018-09-20T18:24:39.852Z,20.94
2018-09-20T18:27:09.016Z,20.87
2018-09-20T18:29:38.027Z,20.76
2018-09-20T18:32:07.084Z,20.70
2018-09-20T18:34:36.088Z,20.60
2018-09-20T18:37:05.108Z,20.56
2018-09-20T18:39:34.134Z,20.53
2018-09-20T18:42:03.175Z,20.49
2018-09-20T18:44:32.259Z,20.48
2018-09-20T18:47:01.368Z,20.37
2018-09-20T18:49:30.384Z,20.29
2018-09-20T18:51:59.396Z,20.20
2018-09-20T18:54:28.428Z,20.11
2018-09-20T18:56:57.443Z,20.01
2018-09-20T18:59:26.447Z,19.94
2018-09-20T19:01:55.532Z,19.87
2018-09-20T19:04:24.563Z,19.86
2018-09-20T19:06:53.631Z,19.78
2018-09-20T19:09:22.635Z,19.71
2018-09-20T19:11:51.648Z,19.64
2018-09-20T19:14:20.699Z,19.58
2018-09-20T19:16:49.703Z,19.53
2018-09-20T19:19:18.703Z,19.46
2018-09-20T19:21:47.759Z,19.44
2018-09-20T19:24:16.763Z,19.51
2018-09-20T19:26:45.892Z,19.61
2018-09-20T19:29:14.912Z,19.64
2018-09-20T19:31:43.924Z,19.68
2018-09-20T19:34:12.930Z,19.57
2018-09-20T19:36:41.942Z,19.49
2018-09-20T19:39:11.923Z,19.49
2018-09-20T19:41:40.959Z,19.42
2018-09-20T19:44:09.976Z,19.31
2018-09-20T19:46:39.006Z,19.29
2018-09-20T19:49:08.015Z,19.34
2018-09-20T19:51:37.050Z,19.42
2018-09-20T19:54:06.060Z,19.43
2018-09-20T19:56:35.152Z,19.46
2018-09-20T19:59:04.154Z,19.39
2018-09-20T20:01:33.308Z,19.36
2018-09-20T20:04:02.311Z,19.32
2018-09-20T20:06:31.349Z,19.28
2018-09-20T20:09:00.404Z,19.30
2018-09-20T20:11:29.411Z,19.31
2018-09-20T20:13:58.419Z,19.25
2018-09-20T20:16:27.431Z,19.24
2018-09-20T20:18:56.426Z,19.28
2018-09-20T20:21:25.438Z,19.31
2018-09-20T20:23:54.807Z,19.24
2018-09-20T20:26:23.868Z,19.18
2018-09-20T20:28:52.859Z,19.18
2018-09-20T20:31:21.894Z,19.19
2018-09-20T20:33:50.895Z,19.21
2018-09-20T20:36:19.916Z,19.20
2018-09-20T20:38:48.907Z,19.18
2018-09-20T20:41:17.915Z,19.22
2018-09-20T20:43:46.908Z,19.15
2018-09-20T20:46:15.898Z,19.09
2018-09-20T20:48:45.106Z,19.26
2018-09-20T20:51:14.116Z,19.18
2018-09-20T20:53:43.117Z,19.09
2018-09-20T20:56:12.231Z,19.01
2018-09-20T20:58:41.263Z,18.96
2018-09-20T21:01:15.531Z,18.94
2018-09-20T21:03:44.561Z,18.90
2018-09-20T21:06:13.576Z,18.88
2018-09-20T21:08:42.775Z,18.88
2018-09-20T21:11:11.775Z,18.86
2018-09-20T21:13:40.960Z,18.78
2018-09-20T21:16:09.981Z,18.81
2018-09-20T21:18:39.206Z,18.79
2018-09-20T21:21:08.203Z,18.75
2018-09-20T21:23:37.223Z,18.78
2018-09-20T21:26:06.334Z,18.80
2018-09-20T21:28:35.393Z,18.78
2018-09-20T21:31:04.434Z,18.92
2018-09-20T21:33:33.453Z,19.14
2018-09-20T21:36:02.479Z,19.29
2018-09-20T21:38:31.499Z,19.22
2018-09-20T21:41:00.500Z,19.08
2018-09-20T21:43:29.818Z,19.14
2018-09-20T21:45:58.823Z,19.11
2018-09-20T21:48:27.881Z,18.99
2018-09-20T21:50:56.998Z,18.96
2018-09-20T21:53:25.963Z,18.96
2018-09-20T21:55:54.987Z,18.96
2018-09-20T21:58:24.007Z,19.01
2018-09-20T22:00:58.465Z,19.23
2018-09-20T22:03:27.492Z,19.18
2018-09-20T22:05:56.568Z,19.06
2018-09-20T22:08:25.723Z,19.21
2018-09-20T22:10:54.875Z,19.26
2018-09-20T22:13:23.907Z,19.25
2018-09-20T22:15:52.911Z,19.16
2018-09-20T22:18:21.939Z,19.24
2018-09-20T22:20:50.959Z,19.15
2018-09-20T22:23:20.074Z,19.22
2018-09-20T22:25:49.087Z,19.30
2018-09-20T22:28:18.220Z,19.27
2018-09-20T22:30:47.231Z,19.32
2018-09-20T22:33:16.254Z,19.21
2018-09-20T22:35:45.260Z,19.07
2018-09-20T22:38:14.279Z,19.12
2018-09-20T22:40:43.823Z,19.15
2018-09-20T22:43:12.871Z,19.08
2018-09-20T22:45:41.875Z,19.15
2018-09-20T22:48:10.907Z,18.99
2018-09-20T22:50:39.964Z,18.98
2018-09-20T22:53:08.991Z,18.88
2018-09-20T22:55:38.004Z,18.79
2018-09-20T22:58:07.051Z,18.77
2018-09-20T23:00:36.072Z,18.68
2018-09-20T23:03:05.091Z,18.62
2018-09-20T23:05:34.154Z,18.71
2018-09-20T23:08:03.159Z,18.71
2018-09-20T23:10:32.180Z,18.68
2018-09-20T23:13:01.187Z,18.90
2018-09-20T23:15:30.231Z,18.99
2018-09-20T23:17:59.238Z,18.92
2018-09-20T23:20:28.287Z,19.18
2018-09-20T23:22:57.277Z,19.20
2018-09-20T23:25:26.326Z,18.98
2018-09-20T23:27:55.336Z,18.90
2018-09-20T23:30:24.428Z,18.84
2018-09-20T23:32:53.418Z,18.89
2018-09-20T23:35:22.439Z,18.83
2018-09-20T23:37:51.442Z,18.75
2018-09-20T23:40:20.463Z,18.78
2018-09-20T23:42:49.468Z,18.71
2018-09-20T23:45:18.487Z,18.69
2018-09-20T23:47:47.495Z,18.65
2018-09-20T23:50:16.524Z,18.61
2018-09-20T23:52:45.719Z,18.60
2018-09-20T23:55:14.740Z,18.63
2018-09-20T23:57:43.743Z,18.56
